Time;durP1;ratioP1;P1;durP2;ratioP2;P2;SDS_P1;SDS_P2;PMS_P1;PMS_P2;Temp;Humidity;BMP_temperature;BMP_pressure;BME280_temperature;BME280_humidity;BME280_pressure;Samples;Min_cycle;Max_cycle;Signal;HPM_P1;HPM_P2
2023/05/20 00:02:53;;;;;;;4.17;2.10;;;;;;;14.93;42.45;99934.38;10470248;28;20330;-69
2023/05/20 00:07:55;;;;;;;2.93;2.30;;;;;;;14.23;42.69;99943.88;10451530;28;20259;-67
2023/05/20 00:13:02;;;;;;;3.57;2.27;;;;;;;14.03;43.36;99945.44;10472260;28;20235;-69
2023/05/20 00:18:04;;;;;;;2.40;1.80;;;;;;;14.51;43.36;99938.28;10479624;28;20328;-67
2023/05/20 00:23:06;;;;;;;4.23;2.50;;;;;;;14.71;42.62;99930.19;10478099;28;20235;-68
2023/05/20 00:28:08;;;;;;;2.57;2.13;;;;;;;14.23;43.48;99968.91;10478569;28;20239;-69
2023/05/20 00:33:09;;;;;;;2.60;2.30;;;;;;;14.05;43.59;99947.91;10473025;28;20318;-69
2023/05/20 00:38:11;;;;;;;2.33;2.13;;;;;;;13.82;43.71;99927.59;10475758;28;20245;-69
2023/05/20 00:43:13;;;;;;;3.70;2.57;;;;;;;14.06;43.93;99946.94;10481109;28;20230;-69
2023/05/20 00:48:15;;;;;;;3.53;2.37;;;;;;;13.67;44.48;99941.19;10471924;28;20227;-69
2023/05/20 00:53:20;;;;;;;4.40;2.57;;;;;;;13.78;44.14;99920.13;10473122;28;20346;-69
2023/05/20 00:58:21;;;;;;;5.60;2.27;;;;;;;13.34;45.06;99926.78;10478358;28;20231;-69
2023/05/20 01:03:24;;;;;;;3.07;2.70;;;;;;;15.20;42.77;99893.03;10471658;28;20238;-68
2023/05/20 01:08:27;;;;;;;3.23;2.50;;;;;;;14.06;44.68;99927.25;10473565;28;20242;-67
2023/05/20 01:13:35;;;;;;;2.77;2.10;;;;;;;14.57;43.69;99930.19;10471239;28;20223;-69
2023/05/20 01:18:38;;;;;;;2.47;2.27;;;;;;;13.54;45.16;99914.25;10477269;28;20417;-67
2023/05/20 01:23:40;;;;;;;3.50;2.90;;;;;;;13.79;44.90;99929.88;10480381;28;20698;-69
2023/05/20 01:28:42;;;;;;;2.60;2.40;;;;;;;13.58;45.13;99937.03;10470085;28;20234;-67
2023/05/20 01:33:50;;;;;;;3.57;2.40;;;;;;;13.99;45.08;99921.84;10480071;28;20233;-67
2023/05/20 01:38:53;;;;;;;2.40;2.20;;;;;;;14.56;44.23;99917.78;10478932;28;20323;-69
2023/05/20 01:43:55;;;;;;;3.63;2.70;;;;;;;13.29;45.67;99905.88;10471824;28;20232;-69
2023/05/20 01:48:57;;;;;;;3.13;2.83;;;;;;;14.21;44.57;99903.69;10471580;28;20227;-69
2023/05/20 01:53:59;;;;;;;5.70;2.90;;;;;;;13.82;45.50;99913.31;10472543;28;20226;-69
2023/05/20 01:59:00;;;;;;;3.70;2.93;;;;;;;14.11;45.19;99881.75;10476813;28;20224;-69
2023/05/20 02:04:02;;;;;;;3.37;2.70;;;;;;;13.94;45.42;99911.69;10471012;28;20352;-69
2023/05/20 02:09:04;;;;;;;4.50;3.17;;;;;;;14.93;44.58;99893.94;10471026;28;20555;-67
2023/05/20 02:14:05;;;;;;;3.90;3.20;;;;;;;13.00;47.15;99855.91;10476599;28;20642;-69
2023/05/20 02:19:11;;;;;;;4.87;2.90;;;;;;;13.70;46.40;99888.03;10470607;28;20227;-69
2023/05/20 02:24:13;;;;;;;3.63;3.00;;;;;;;13.48;46.37;99874.75;10468618;28;20231;-69
2023/05/20 02:29:15;;;;;;;6.47;2.80;;;;;;;13.61;47.30;99890.91;10451369;28;20284;-69
2023/05/20 02:34:17;;;;;;;4.53;2.70;;;;;;;12.25;48.04;99791.16;10465529;28;20616;-68
2023/05/20 02:39:19;;;;;;;4.33;2.70;;;;;;;13.07;47.22;99870.19;10471425;28;20227;-67
2023/05/20 02:44:21;;;;;;;4.33;2.67;;;;;;;13.51;46.66;99876.19;10468056;28;20865;-67
2023/05/20 02:49:23;;;;;;;4.17;3.23;;;;;;;13.06;47.50;99876.59;10473608;28;20923;-67
2023/05/20 02:54:25;;;;;;;4.30;2.93;;;;;;;12.91;47.69;99876.72;10465768;28;20303;-67
2023/05/20 02:59:26;;;;;;;3.00;2.70;;;;;;;11.78;49.13;99766.69;10471759;28;20234;-67
2023/05/20 03:04:28;;;;;;;4.37;3.33;;;;;;;13.47;47.33;99865.84;10472053;28;20776;-66
2023/05/20 03:09:29;;;;;;;4.37;3.17;;;;;;;12.71;48.13;99872.03;10466622;28;20730;-67
2023/05/20 03:14:31;;;;;;;3.40;3.00;;;;;;;13.00;47.59;99886.25;10475254;28;20219;-67
2023/05/20 03:19:33;;;;;;;7.47;2.50;;;;;;;11.58;49.09;99766.47;10464959;28;20227;-67
2023/05/20 03:24:34;;;;;;;4.17;3.10;;;;;;;11.59;49.40;99803.78;10469256;28;20337;-67
2023/05/20 03:29:36;;;;;;;4.37;3.30;;;;;;;11.77;48.99;99827.47;10473215;28;20346;-69
2023/05/20 03:34:38;;;;;;;6.83;3.00;;;;;;;11.91;49.34;99870.53;10474205;28;20259;-67
2023/05/20 03:39:40;;;;;;;6.80;3.30;;;;;;;12.44;48.68;99902.38;10472194;28;20239;-68
2023/05/20 03:44:41;;;;;;;3.97;2.80;;;;;;;11.36;49.89;99820.03;10475595;28;20323;-67
2023/05/20 03:49:43;;;;;;;4.37;3.40;;;;;;;12.92;48.27;99907.91;10478097;28;20243;-70
2023/05/20 03:54:45;;;;;;;4.30;2.93;;;;;;;11.72;49.33;99875.47;10472175;28;20238;-67
2023/05/20 03:59:46;;;;;;;3.83;2.93;;;;;;;11.58;49.83;99865.63;10470956;28;20235;-68
2023/05/20 04:04:51;;;;;;;4.60;3.03;;;;;;;11.56;50.11;99889.09;10473836;28;20690;-67
2023/05/20 04:09:53;;;;;;;4.37;3.53;;;;;;;12.05;49.53;99925.13;10475645;28;20231;-68
2023/05/20 04:15:01;;;;;;;4.73;3.07;;;;;;;13.07;48.53;99935.47;10473138;28;20234;-67
2023/05/20 04:20:05;;;;;;;5.17;3.10;;;;;;;12.69;48.56;99924.28;10467772;28;20306;-67
2023/05/20 04:25:08;;;;;;;3.43;3.13;;;;;;;12.47;49.13;99937.75;10471887;28;20373;-67
2023/05/20 04:30:11;;;;;;;5.90;3.17;;;;;;;12.69;49.05;99937.72;10470231;28;20605;-66
2023/05/20 04:35:13;;;;;;;3.77;2.90;;;;;;;13.52;47.80;99961.19;10475397;28;20224;-69
2023/05/20 04:40:15;;;;;;;3.43;3.00;;;;;;;12.27;49.09;99945.56;10475348;28;20755;-68
2023/05/20 04:45:17;;;;;;;3.43;3.10;;;;;;;11.89;49.29;99921.66;10465142;28;20783;-71
2023/05/20 04:50:20;;;;;;;3.37;3.07;;;;;;;12.81;49.09;99951.44;10471602;28;20323;-70
2023/05/20 04:55:23;;;;;;;3.47;3.17;;;;;;;12.11;49.83;99941.28;10465125;28;20231;-68
2023/05/20 05:00:25;;;;;;;4.57;2.90;;;;;;;13.54;48.32;99962.66;10434475;28;20790;-68
2023/05/20 05:05:27;;;;;;;4.73;3.23;;;;;;;12.04;49.63;99926.97;10432410;28;20475;-68
2023/05/20 05:10:29;;;;;;;3.67;3.20;;;;;;;12.86;50.02;99949.81;10470241;28;20289;-69
2023/05/20 05:15:30;;;;;;;5.77;3.30;;;;;;;12.30;49.84;99921.06;10475291;28;20818;-68
2023/05/20 05:20:32;;;;;;;8.17;3.70;;;;;;;12.18;50.65;99928.78;10470805;28;20255;-68
2023/05/20 05:25:34;;;;;;;3.40;3.10;;;;;;;12.46;49.31;99911.88;10474659;28;20310;-68
2023/05/20 05:30:36;;;;;;;4.60;3.80;;;;;;;13.41;48.88;99944.63;10476941;28;20233;-70
2023/05/20 05:35:38;;;;;;;4.50;3.00;;;;;;;12.70;49.74;99921.41;10478901;28;20199;-68
2023/05/20 05:40:39;;;;;;;6.03;3.13;;;;;;;13.48;48.20;99928.50;10475562;28;20233;-68
2023/05/20 05:45:42;;;;;;;4.13;3.30;;;;;;;13.40;49.02;99937.56;10470517;28;20339;-68
2023/05/20 05:50:45;;;;;;;3.80;3.20;;;;;;;14.37;48.50;100008.28;10476582;28;20245;-68
2023/05/20 05:55:46;;;;;;;5.47;3.67;;;;;;;13.61;49.28;99941.16;10471684;28;20255;-70
2023/05/20 06:00:52;;;;;;;9.43;3.83;;;;;;;13.81;48.78;99947.44;10473605;28;20322;-68
2023/05/20 06:05:53;;;;;;;4.73;3.13;;;;;;;14.64;47.50;99981.38;10468760;28;20713;-68
2023/05/20 06:10:55;;;;;;;4.17;3.37;;;;;;;14.78;47.90;99983.03;10474826;28;20231;-68
2023/05/20 06:15:56;;;;;;;5.60;3.50;;;;;;;12.84;50.58;99921.47;10472716;28;20234;-68
2023/05/20 06:20:58;;;;;;;3.83;3.10;;;;;;;14.49;48.52;99954.66;10475019;28;20321;-68
2023/05/20 06:26:00;;;;;;;4.47;3.53;;;;;;;14.01;49.17;99947.50;10472663;28;20312;-68
2023/05/20 06:31:02;;;;;;;3.57;3.27;;;;;;;14.29;49.03;99949.25;10471055;28;20238;-69
2023/05/20 06:36:04;;;;;;;5.30;3.67;;;;;;;14.06;49.48;99930.78;10470642;28;20223;-68
2023/05/20 06:41:06;;;;;;;6.17;3.50;;;;;;;14.84;48.58;99973.31;10470575;28;21022;-69
2023/05/20 06:46:07;;;;;;;7.10;4.00;;;;;;;15.00;47.72;99914.66;10471843;28;20254;-69
2023/05/20 06:51:09;;;;;;;6.43;4.23;;;;;;;12.96;51.14;99862.69;10465918;28;20234;-70
2023/05/20 06:56:11;;;;;;;6.43;3.60;;;;;;;15.45;47.89;99969.50;10474862;28;20935;-68
2023/05/20 07:01:12;;;;;;;5.13;3.87;;;;;;;15.06;48.14;99921.91;10475860;28;20260;-69
2023/05/20 07:06:17;;;;;;;4.67;3.93;;;;;;;14.16;49.23;99890.84;10468542;28;20238;-71
2023/05/20 07:11:20;;;;;;;7.47;3.97;;;;;;;15.59;48.11;99948.72;10473876;28;20255;-70
2023/05/20 07:16:22;;;;;;;4.07;3.40;;;;;;;15.47;48.10;99932.34;10475240;28;20238;-68
2023/05/20 07:21:23;;;;;;;4.97;4.00;;;;;;;15.11;49.11;99893.25;10476106;28;20231;-71
2023/05/20 07:26:25;;;;;;;3.97;3.57;;;;;;;14.26;49.87;99839.31;10480243;28;20733;-69
2023/05/20 07:31:27;;;;;;;5.03;3.40;;;;;;;15.61;48.02;99849.53;10482777;28;20958;-70
2023/05/20 07:36:29;;;;;;;4.17;3.40;;;;;;;16.22;47.77;99904.75;10483504;28;20886;-69
2023/05/20 07:41:31;;;;;;;4.33;3.63;;;;;;;16.65;47.27;99886.16;10478135;28;20237;-69
2023/05/20 07:46:33;;;;;;;5.60;3.80;;;;;;;15.53;49.03;99820.09;10476976;28;20322;-70
2023/05/20 07:51:36;;;;;;;5.43;3.50;;;;;;;17.43;46.39;99858.50;10476322;28;20261;-70
2023/05/20 07:56:37;;;;;;;5.13;4.30;;;;;;;17.63;46.32;99844.72;10476030;28;20314;-72
2023/05/20 08:01:41;;;;;;;7.87;4.40;;;;;;;16.84;47.57;99806.78;10458271;28;20259;-71
2023/05/20 08:06:43;;;;;;;4.97;4.03;;;;;;;16.66;47.77;99785.16;10479140;28;20612;-70
2023/05/20 08:11:45;;;;;;;6.57;4.17;;;;;;;17.40;47.42;99806.72;10481343;28;20699;-70
2023/05/20 08:16:48;;;;;;;6.50;4.30;;;;;;;16.78;47.55;99740.94;10478199;28;20235;-70
2023/05/20 08:21:53;;;;;;;5.63;4.67;;;;;;;17.76;46.71;99783.34;10476635;28;20843;-70
2023/05/20 08:26:54;;;;;;;8.80;4.90;;;;;;;17.81;46.75;99756.41;10474864;28;20223;-70
2023/05/20 08:31:56;;;;;;;5.70;4.67;;;;;;;16.41;48.61;99713.94;10476748;28;20707;-72
2023/05/20 08:36:58;;;;;;;5.40;4.77;;;;;;;17.35;47.95;99718.97;10473408;28;20227;-70
2023/05/20 08:42:00;;;;;;;6.27;4.70;;;;;;;17.77;46.61;99693.78;10476866;28;20610;-70
2023/05/20 08:47:03;;;;;;;5.30;4.80;;;;;;;17.08;47.59;99669.88;10470340;28;20306;-70
2023/05/20 08:52:08;;;;;;;6.73;4.83;;;;;;;16.69;48.22;99649.63;10481646;28;20311;-70
2023/05/20 08:57:12;;;;;;;5.37;4.40;;;;;;;17.93;45.73;99646.25;10476658;28;20230;-69
2023/05/20 09:02:14;;;;;;;4.90;4.40;;;;;;;18.92;45.56;99668.88;10470155;28;20895;-70
2023/05/20 09:07:28;;;;;;;7.60;4.40;;;;;;;17.78;46.77;99657.56;10477821;28;20238;-70
2023/05/20 09:12:30;;;;;;;6.43;4.40;;;;;;;18.54;45.41;99611.53;10476093;28;20236;-69
2023/05/20 09:17:36;;;;;;;5.33;4.83;;;;;;;17.29;47.11;99565.78;10477931;28;20234;-70
2023/05/20 09:22:38;;;;;;;7.80;4.50;;;;;;;18.40;45.84;99623.69;10475347;28;20231;-70
2023/05/20 09:27:39;;;;;;;7.43;5.67;;;;;;;16.12;48.16;99587.78;10474385;28;20238;-70
2023/05/20 09:32:41;;;;;;;5.70;4.43;;;;;;;19.46;44.81;99680.13;10479329;28;20231;-70
2023/05/20 09:37:46;;;;;;;7.87;4.67;;;;;;;18.53;45.76;99625.31;10476716;28;20322;-70
2023/05/20 09:43:09;;;;;;;7.07;4.90;;;;;;;17.09;46.48;99576.09;10467835;28;20331;-70
2023/05/20 09:48:12;;;;;;;6.07;5.00;;;;;;;18.07;46.34;99601.63;10468525;28;21525;-70
2023/05/20 09:53:15;;;;;;;5.57;4.57;;;;;;;19.22;44.96;99641.50;10476622;28;20236;-70
2023/05/20 09:58:19;;;;;;;7.70;4.90;;;;;;;19.74;44.24;99607.88;10474398;28;20344;-70
2023/05/20 10:03:26;;;;;;;6.03;4.57;;;;;;;19.74;44.67;99599.72;10472721;28;20318;-70
2023/05/20 10:08:42;;;;;;;6.90;4.90;;;;;;;19.61;44.77;99568.31;10449145;28;20239;-70
2023/05/20 10:13:50;;;;;;;5.50;4.60;;;;;;;19.76;43.50;99559.56;10426185;28;20253;-70
2023/05/20 10:19:10;;;;;;;6.25;4.68;;;;;;;18.79;44.98;99548.84;10430490;28;20232;-69
2023/05/20 10:24:12;;;;;;;5.00;4.50;;;;;;;20.38;43.70;99563.88;10428472;28;20822;-70
2023/05/20 10:29:17;;;;;;;4.70;4.22;;;;;;;19.04;44.57;99482.56;10454191;28;20663;-70
2023/05/20 10:34:21;;;;;;;4.75;4.25;;;;;;;19.56;44.33;99525.63;10470517;28;20980;-71
2023/05/20 10:39:27;;;;;;;5.30;4.00;;;;;;;19.77;44.35;99493.31;10474458;28;20285;-71
2023/05/20 10:44:42;;;;;;;5.97;4.55;;;;;;;20.19;44.28;99481.88;10471426;28;20223;-70
2023/05/20 10:49:45;;;;;;;9.43;5.22;;;;;;;21.01;42.28;99458.13;10471931;28;20393;-71
2023/05/20 10:54:56;;;;;;;4.80;4.22;;;;;;;18.85;44.68;99446.72;10452410;28;20232;-70
2023/05/20 10:59:59;;;;;;;6.78;4.68;;;;;;;19.76;43.59;99437.41;10466532;28;20227;-70
2023/05/20 11:06:28;;;;;;;5.68;4.30;;;;;;;18.80;46.66;99526.06;10496255;27;20848;-69
2023/05/20 11:11:30;;;;;;;6.05;4.30;;;;;;;18.12;46.84;99552.19;10380950;28;20871;-69
2023/05/20 11:16:32;;;;;;;4.97;4.35;;;;;;;18.06;46.23;99474.63;10379877;28;20257;-66
2023/05/20 11:21:41;;;;;;;6.15;4.32;;;;;;;19.39;44.83;99487.66;10386354;28;20232;-69
2023/05/20 11:26:43;;;;;;;7.00;4.75;;;;;;;17.65;45.51;99463.00;10501601;28;20254;-69
2023/05/20 11:31:48;;;;;;;4.72;3.95;;;;;;;19.18;44.75;99505.56;10507572;28;20321;-68
2023/05/20 11:36:57;;;;;;;7.43;4.00;;;;;;;19.45;44.20;99495.88;10500040;28;20227;-68
2023/05/20 11:41:59;;;;;;;5.57;4.28;;;;;;;18.36;45.35;99496.06;10505688;28;20768;-68
2023/05/20 11:47:02;;;;;;;5.82;3.97;;;;;;;20.25;44.02;99482.78;10499938;28;20226;-67
2023/05/20 11:52:06;;;;;;;9.10;4.10;;;;;;;19.15;44.67;99470.78;10501666;28;20227;-68
2023/05/20 11:57:10;;;;;;;8.02;4.32;;;;;;;19.31;44.27;99469.09;10505965;28;20253;-68
2023/05/20 12:02:12;;;;;;;8.30;4.18;;;;;;;19.52;43.66;99453.13;10503591;28;20263;-67
2023/05/20 12:07:16;;;;;;;4.15;3.75;;;;;;;20.57;43.04;99477.34;10502713;28;20724;-67
2023/05/20 12:12:19;;;;;;;5.47;4.03;;;;;;;19.38;44.17;99441.78;10506823;28;20223;-67
2023/05/20 12:17:20;;;;;;;4.75;4.30;;;;;;;20.48;42.96;99451.72;10475586;28;21033;-67
2023/05/20 12:22:22;;;;;;;6.47;3.85;;;;;;;19.88;43.34;99413.66;10473292;28;20231;-67
2023/05/20 12:27:24;;;;;;;4.72;3.92;;;;;;;19.33;43.26;99385.59;10474942;28;20259;-68
2023/05/20 12:32:25;;;;;;;4.20;3.50;;;;;;;19.84;44.05;99412.53;10473462;28;20824;-67
2023/05/20 12:37:27;;;;;;;5.22;4.20;;;;;;;19.76;43.25;99375.78;10478299;28;20227;-68
2023/05/20 12:42:29;;;;;;;4.20;3.80;;;;;;;20.69;41.70;99377.41;10471303;28;20316;-67
2023/05/20 12:47:31;;;;;;;4.97;4.20;;;;;;;21.32;41.79;99405.78;10474014;28;20311;-68
2023/05/20 12:52:33;;;;;;;6.30;4.43;;;;;;;20.22;42.88;99380.84;10463153;28;20329;-68
2023/05/20 12:57:35;;;;;;;4.60;4.13;;;;;;;19.50;42.87;99347.53;10476907;28;20226;-68
2023/05/20 13:02:37;;;;;;;5.47;4.40;;;;;;;19.94;42.94;99409.09;10467701;28;20265;-68
2023/05/20 13:07:40;;;;;;;4.60;4.10;;;;;;;19.53;42.97;99347.00;10472708;28;20330;-68
2023/05/20 13:12:45;;;;;;;8.13;4.60;;;;;;;20.11;42.84;99358.22;10469723;28;20684;-68
2023/05/20 13:17:46;;;;;;;4.95;4.45;;;;;;;21.29;42.00;99357.34;10473212;28;20234;-68
2023/05/20 13:22:49;;;;;;;7.60;4.90;;;;;;;20.03;42.72;99355.16;10470414;28;20263;-67
2023/05/20 13:27:50;;;;;;;5.78;4.72;;;;;;;19.91;42.78;99304.53;10469830;28;20338;-70
2023/05/20 13:32:52;;;;;;;7.65;4.60;;;;;;;19.74;42.29;99304.66;10471041;28;20674;-68
2023/05/20 13:37:54;;;;;;;7.63;5.50;;;;;;;21.48;41.83;99323.16;10472290;28;20228;-69
2023/05/20 13:42:56;;;;;;;5.68;4.65;;;;;;;20.44;42.64;99312.03;10471930;28;20230;-68
2023/05/20 13:47:57;;;;;;;5.40;4.10;;;;;;;20.10;42.25;99296.81;10473164;28;20262;-68
2023/05/20 13:52:59;;;;;;;5.25;4.30;;;;;;;20.68;42.17;99294.25;10474787;28;20746;-69
2023/05/20 13:58:01;;;;;;;6.25;4.25;;;;;;;20.80;42.11;99280.47;10476456;28;20274;-69
2023/05/20 14:03:03;;;;;;;7.38;4.85;;;;;;;20.94;42.62;99299.81;10464814;28;20265;-68
2023/05/20 14:08:05;;;;;;;7.03;4.82;;;;;;;20.05;42.96;99288.63;10466483;28;20777;-68
2023/05/20 14:13:09;;;;;;;5.28;4.47;;;;;;;21.12;41.77;99270.50;10464705;28;20247;-68
2023/05/20 14:18:11;;;;;;;5.20;4.63;;;;;;;20.89;41.90;99296.28;10472060;28;20223;-68
2023/05/20 14:23:13;;;;;;;5.10;4.20;;;;;;;20.88;41.85;99257.34;10474598;28;20231;-67
2023/05/20 14:28:14;;;;;;;4.47;4.00;;;;;;;21.86;40.76;99260.28;10469449;28;20251;-68
2023/05/20 14:33:16;;;;;;;5.18;4.38;;;;;;;20.51;42.58;99285.44;10468981;28;20263;-68
2023/05/20 14:38:20;;;;;;;4.97;3.88;;;;;;;20.99;41.96;99280.00;10474928;28;20231;-68
2023/05/20 14:43:21;;;;;;;4.57;4.18;;;;;;;21.51;41.87;99221.91;10473803;28;20226;-68
2023/05/20 14:48:23;;;;;;;5.00;4.40;;;;;;;20.96;42.10;99215.25;10465343;28;20317;-68
2023/05/20 14:53:25;;;;;;;6.15;4.70;;;;;;;21.51;41.82;99249.13;10470641;28;20710;-68
2023/05/20 14:58:26;;;;;;;5.55;4.30;;;;;;;20.93;42.59;99262.81;10473524;28;20596;-68
2023/05/20 15:03:28;;;;;;;6.78;4.55;;;;;;;20.63;42.09;99255.31;10468348;28;20243;-67
2023/05/20 15:08:31;;;;;;;5.22;4.15;;;;;;;21.11;41.87;99283.28;10470795;28;21137;-69
2023/05/20 15:13:32;;;;;;;5.28;4.38;;;;;;;21.39;41.64;99246.66;10466622;28;20316;-69
2023/05/20 15:18:34;;;;;;;4.70;4.22;;;;;;;21.48;41.43;99257.81;10466859;28;20261;-68
2023/05/20 15:23:36;;;;;;;5.68;4.68;;;;;;;21.71;41.21;99206.66;10472539;28;20227;-68
2023/05/20 15:28:39;;;;;;;4.43;4.00;;;;;;;21.28;41.34;99219.69;10472429;28;20339;-68
2023/05/20 15:33:41;;;;;;;4.85;4.30;;;;;;;21.00;42.01;99241.66;10470891;28;20321;-68
2023/05/20 15:38:44;;;;;;;5.10;4.47;;;;;;;21.96;40.69;99217.56;10475778;28;20310;-68
2023/05/20 15:43:46;;;;;;;5.65;4.82;;;;;;;21.42;41.74;99272.50;10474744;28;20318;-68
2023/05/20 15:48:47;;;;;;;7.35;4.50;;;;;;;21.71;41.51;99240.16;10469042;28;20231;-68
2023/05/20 15:53:49;;;;;;;5.10;4.47;;;;;;;20.19;41.96;99209.44;10481516;28;20284;-68
2023/05/20 15:58:51;;;;;;;4.45;4.05;;;;;;;21.70;40.90;99235.78;10483095;28;20826;-67
2023/05/20 16:03:52;;;;;;;5.65;4.65;;;;;;;20.21;42.24;99238.00;10479334;28;20593;-68
2023/05/20 16:08:58;;;;;;;4.78;4.30;;;;;;;21.83;41.20;99244.50;10474784;28;20237;-68
2023/05/20 16:13:59;;;;;;;5.18;4.68;;;;;;;20.45;41.83;99232.97;10477732;28;20219;-68
2023/05/20 16:19:01;;;;;;;6.55;4.78;;;;;;;20.92;41.74;99244.88;10475905;28;20819;-67
2023/05/20 16:24:03;;;;;;;5.22;4.72;;;;;;;20.31;42.11;99246.19;10473824;28;20254;-68
2023/05/20 16:29:05;;;;;;;4.78;4.28;;;;;;;20.21;42.13;99226.28;10473735;28;20228;-68
2023/05/20 16:34:07;;;;;;;7.35;4.93;;;;;;;20.68;41.73;99260.78;10478528;28;20310;-69
2023/05/20 16:39:08;;;;;;;7.05;4.82;;;;;;;21.32;41.26;99221.56;10476579;28;20618;-68
2023/05/20 16:44:10;;;;;;;5.40;4.90;;;;;;;19.87;42.01;99204.84;10476781;28;20319;-68
2023/05/20 16:49:12;;;;;;;5.53;5.03;;;;;;;20.60;41.95;99229.50;10477404;28;20239;-68
2023/05/20 16:54:14;;;;;;;5.18;4.63;;;;;;;20.39;42.32;99227.75;10477800;28;20230;-68
2023/05/20 16:59:15;;;;;;;6.47;5.65;;;;;;;19.43;44.46;99227.53;10468938;28;20231;-68
2023/05/20 17:04:17;;;;;;;10.70;6.07;;;;;;;19.58;44.63;99254.84;10446021;28;20233;-68
2023/05/20 17:09:19;;;;;;;10.82;6.25;;;;;;;19.39;45.25;99272.53;10430484;28;20236;-70
2023/05/20 17:14:20;;;;;;;8.98;6.93;;;;;;;19.90;44.95;99300.16;10432711;28;20228;-71
2023/05/20 17:19:22;;;;;;;7.75;6.63;;;;;;;18.59;46.09;99243.13;10419475;28;20229;-70
2023/05/20 17:24:24;;;;;;;9.40;6.68;;;;;;;17.95;46.96;99218.34;10434171;28;20232;-68
2023/05/20 17:29:26;;;;;;;8.10;7.28;;;;;;;18.64;46.83;99304.66;10432917;28;20679;-71
2023/05/20 17:34:28;;;;;;;7.28;6.57;;;;;;;18.46;47.12;99300.38;10433104;28;20231;-72
2023/05/20 17:39:30;;;;;;;9.75;7.32;;;;;;;19.50;45.78;99325.00;10426762;28;20228;-70
2023/05/20 17:44:31;;;;;;;8.13;7.05;;;;;;;18.38;46.96;99301.59;10436237;28;20310;-69
2023/05/20 17:49:33;;;;;;;7.90;7.10;;;;;;;18.30;47.48;99344.53;10433676;28;20256;-71
2023/05/20 17:54:35;;;;;;;9.65;7.25;;;;;;;19.62;46.00;99335.72;10431429;28;20315;-71
2023/05/20 17:59:40;;;;;;;9.50;7.68;;;;;;;18.59;47.68;99369.63;10422405;28;20379;-71
2023/05/20 18:04:42;;;;;;;8.40;7.55;;;;;;;18.27;47.35;99343.94;10445070;28;20228;-70
2023/05/20 18:09:43;;;;;;;10.02;8.07;;;;;;;18.65;47.37;99360.50;10432596;28;20236;-70
2023/05/20 18:14:45;;;;;;;8.30;7.50;;;;;;;17.78;48.11;99326.56;10429746;28;20259;-71
2023/05/20 18:19:47;;;;;;;12.27;8.50;;;;;;;18.10;47.46;99335.81;10435432;28;20230;-70
2023/05/20 18:24:48;;;;;;;10.20;7.90;;;;;;;17.94;48.19;99374.50;10437699;28;20319;-71
2023/05/20 18:29:50;;;;;;;10.68;7.75;;;;;;;17.63;48.26;99343.34;10425428;28;20326;-71
2023/05/20 18:34:52;;;;;;;9.40;8.32;;;;;;;17.97;47.88;99333.44;10440320;28;20243;-72
2023/05/20 18:39:56;;;;;;;8.35;7.55;;;;;;;17.18;49.03;99331.38;10450447;28;20400;-70
2023/05/20 18:44:58;;;;;;;13.52;8.55;;;;;;;17.73;48.16;99347.09;10441748;28;20231;-70
2023/05/20 18:50:00;;;;;;;9.80;7.78;;;;;;;17.26;49.33;99368.88;10447635;28;20281;-70
2023/05/20 18:55:01;;;;;;;8.40;7.57;;;;;;;17.11;49.24;99366.66;10449360;28;20251;-68
2023/05/20 19:00:07;;;;;;;8.65;7.75;;;;;;;18.11;47.54;99347.47;10435828;28;20252;-70
2023/05/20 19:05:10;;;;;;;9.07;8.17;;;;;;;17.55;49.14;99423.00;10459911;28;20231;-66
2023/05/20 19:10:12;;;;;;;9.13;7.53;;;;;;;17.56;48.70;99443.56;10463931;28;20918;-69
2023/05/20 19:15:15;;;;;;;24.73;8.93;;;;;;;17.53;48.74;99434.06;10467949;28;20620;-70
2023/05/20 19:20:16;;;;;;;9.70;8.70;;;;;;;17.23;49.06;99404.50;10470051;28;20322;-68
2023/05/20 19:25:19;;;;;;;10.30;8.03;;;;;;;17.44;48.71;99434.66;10472199;28;20757;-68
2023/05/20 19:30:20;;;;;;;9.70;8.70;;;;;;;17.27;49.40;99450.78;10479503;28;20312;-72
2023/05/20 19:35:22;;;;;;;9.47;8.00;;;;;;;16.85;49.88;99443.59;10467963;28;20220;-70
2023/05/20 19:40:24;;;;;;;10.37;9.33;;;;;;;17.37;49.19;99461.84;10443041;28;20738;-67
2023/05/20 19:45:25;;;;;;;9.53;8.63;;;;;;;17.31;48.45;99419.53;10461218;28;20368;-69
2023/05/20 19:50:27;;;;;;;9.50;8.60;;;;;;;17.32;48.94;99467.13;10460606;28;20330;-71
2023/05/20 19:55:29;;;;;;;10.13;7.63;;;;;;;17.19;48.93;99457.38;10473793;28;20658;-71
2023/05/20 20:00:31;;;;;;;9.77;8.77;;;;;;;16.63;49.90;99446.06;10468787;28;20331;-72
2023/05/20 20:05:32;;;;;;;10.30;8.33;;;;;;;17.01;49.43;99468.34;10432370;28;20240;-71
2023/05/20 20:10:36;;;;;;;10.03;9.03;;;;;;;16.68;50.08;99485.88;10425829;28;20699;-72
2023/05/20 20:15:38;;;;;;;11.07;8.57;;;;;;;16.54;50.18;99487.97;10437566;28;20292;-69
2023/05/20 20:20:41;;;;;;;9.90;8.43;;;;;;;17.41;48.71;99475.69;10435575;28;20228;-71
2023/05/20 20:25:46;;;;;;;11.57;9.10;;;;;;;17.26;49.30;99500.50;10447728;28;20361;-70
2023/05/20 20:30:48;;;;;;;9.23;8.30;;;;;;;16.36;50.40;99475.34;10433094;28;20323;-70
2023/05/20 20:35:53;;;;;;;9.87;8.67;;;;;;;16.43;50.79;99505.78;10446756;28;20628;-69
2023/05/20 20:40:54;;;;;;;9.27;8.27;;;;;;;17.14;49.64;99489.69;10441414;28;20236;-67
2023/05/20 20:45:58;;;;;;;10.87;9.77;;;;;;;17.73;49.02;99516.72;10440720;28;20781;-70
2023/05/20 20:51:00;;;;;;;10.70;9.20;;;;;;;16.02;50.77;99466.88;10436972;28;20314;-67
2023/05/20 20:56:02;;;;;;;12.77;10.93;;;;;;;15.56;52.22;99471.00;10441271;28;20228;-69
2023/05/20 21:01:05;;;;;;;10.97;9.63;;;;;;;17.03;50.31;99496.75;10437953;28;20261;-70
2023/05/20 21:06:07;;;;;;;11.57;9.97;;;;;;;16.71;50.57;99493.53;10472678;28;20300;-70
2023/05/20 21:11:08;;;;;;;12.00;9.83;;;;;;;16.49;51.02;99498.66;10473722;28;20276;-69
2023/05/20 21:16:10;;;;;;;10.93;9.83;;;;;;;15.33;53.12;99461.66;10478237;28;20243;-70
2023/05/20 21:21:13;;;;;;;11.23;10.10;;;;;;;15.79;52.14;99498.09;10476325;28;20615;-70
2023/05/20 21:26:15;;;;;;;12.40;11.07;;;;;;;15.79;52.45;99499.94;10477257;28;20786;-71
2023/05/20 21:31:17;;;;;;;12.60;11.30;;;;;;;15.98;52.33;99503.47;10471501;28;20278;-71
2023/05/20 21:36:20;;;;;;;12.60;11.30;;;;;;;15.68;52.64;99477.28;10477704;28;20740;-73
2023/05/20 21:41:22;;;;;;;12.50;10.90;;;;;;;16.15;51.87;99501.78;10469512;28;20250;-71
2023/05/20 21:46:23;;;;;;;13.60;10.43;;;;;;;15.93;52.44;99512.25;10478019;28;20235;-71
2023/05/20 21:51:25;;;;;;;12.43;11.13;;;;;;;16.35;51.95;99503.44;10464665;28;20228;-73
2023/05/20 21:56:27;;;;;;;12.33;11.03;;;;;;;16.25;52.33;99515.56;10461927;28;20328;-72
2023/05/20 22:01:28;;;;;;;13.50;11.87;;;;;;;16.24;51.82;99494.19;10476532;28;20234;-70
2023/05/20 22:06:33;;;;;;;12.87;11.57;;;;;;;15.83;52.99;99501.97;10471787;28;20231;-70
2023/05/20 22:11:36;;;;;;;13.13;11.83;;;;;;;17.15;50.40;99521.09;10446983;28;20845;-70
2023/05/20 22:16:38;;;;;;;14.33;11.40;;;;;;;16.24;51.89;99495.00;10444067;28;20613;-71
2023/05/20 22:21:41;;;;;;;12.70;10.43;;;;;;;16.47;52.21;99511.56;10473077;28;20238;-69
2023/05/20 22:26:51;;;;;;;12.87;11.43;;;;;;;16.21;52.59;99503.59;10470936;28;20227;-69
2023/05/20 22:31:52;;;;;;;12.90;11.63;;;;;;;15.45;53.42;99481.44;10477583;28;20227;-69
2023/05/20 22:36:54;;;;;;;14.00;12.60;;;;;;;15.74;53.01;99503.34;10478253;28;20222;-71
2023/05/20 22:41:56;;;;;;;13.83;12.27;;;;;;;16.25;52.50;99512.84;10473435;28;20285;-67
2023/05/20 22:46:57;;;;;;;13.97;12.57;;;;;;;15.87;53.74;99516.66;10474150;28;20280;-70
2023/05/20 22:51:59;;;;;;;13.90;12.43;;;;;;;15.65;52.98;99475.03;10478015;28;20237;-68
2023/05/20 22:57:01;;;;;;;14.23;12.73;;;;;;;15.26;54.18;99482.47;10477744;28;20223;-73
2023/05/20 23:02:03;;;;;;;15.17;13.17;;;;;;;16.54;52.04;99513.09;10446411;28;20243;-73
2023/05/20 23:07:05;;;;;;;15.07;13.10;;;;;;;17.07;50.52;99506.03;10456392;28;20228;-73
2023/05/20 23:12:07;;;;;;;17.37;12.93;;;;;;;15.76;53.55;99498.53;10471472;28;20312;-72
2023/05/20 23:17:09;;;;;;;15.70;13.63;;;;;;;16.62;51.71;99487.66;10475229;28;20222;-73
2023/05/20 23:22:10;;;;;;;15.37;12.47;;;;;;;16.74;51.23;99480.38;10475684;28;20608;-74